Latest Weather Observations for Townsville

IDQ60801

Issued at 10:02 am EST Monday 2 February 2015 (issued every 30 minutes, with the page automatically refreshed every 10 minutes)

About weather observations | Map of weather stations | Latest weather observations for QLD | Other Formats
Station Details ID: 032040 Name: TOWNSVILLE AERO Lat: -19.25 Lon: 146.77 Height: 4.34 m
Data from the previous 72 hours. | See also: Recent months at Townsville
Date/Time
EST
Temp
°C
App
Temp
°C
Dew
Point
Rel
Hum
%
Delta-T
°C
Wind Press
QNH
hPa
Press
MSL
hPa
Rain
since 9 am
mm
Dir
 
Spd
km/h
Gust
km/h
Spd
kts
Gust
kts
02/10:00am 31.5 31.8 22.2 57 6.3 NW 24 30 13 16 1006.4 - 0.0
02/09:30am 31.1 32.2 21.9 58 6.2 NW 19 28 10 15 1006.5 - 0.0
02/09:00am 31.0 32.6 22.8 61 5.6 NNW 19 26 10 14 1006.5 1006.4 0.0
02/08:30am 30.8 32.2 22.8 62 5.5 NW 20 28 11 15 1006.6 - 0.0
02/08:00am 30.4 31.6 22.1 61 5.6 NNW 19 26 10 14 1006.6 - 0.0
02/07:30am 29.7 31.7 22.3 64 5.0 N 15 20 8 11 1006.3 - 0.0
02/07:00am 29.0 33.0 22.7 69 4.3 N 6 9 3 5 1006.2 - 0.0
02/06:30am 28.0 31.2 22.4 71 3.8 N 9 13 5 7 1006.0 - 0.0
02/06:00am 27.9 29.1 19.9 61 5.2 N 13 20 7 11 1005.6 1005.5 0.0
02/05:30am 27.6 28.8 19.9 63 5.0 NNW 13 19 7 10 1005.5 - 0.0
02/05:00am 27.1 29.2 22.4 75 3.2 WNW 15 19 8 10 1005.4 - 0.0
02/04:30am 27.5 30.7 22.3 73 3.5 NNW 9 13 5 7 1005.3 - 0.0
02/04:00am 26.8 31.2 21.4 72 3.6 CALM 0 0 0 0 1005.4 - 0.0
02/03:30am 26.7 31.4 21.9 75 3.2 CALM 0 0 0 0 1005.2 - 0.0
02/03:00am 26.5 30.8 21.9 76 3.1 W 2 7 1 4 1005.2 1005.1 0.0
02/02:30am 26.7 30.7 20.6 69 4.0 CALM 0 0 0 0 1005.4 - 0.0
02/02:00am 26.9 30.2 21.5 72 3.6 W 6 9 3 5 1005.7 - 0.0
02/01:30am 27.5 29.8 20.7 66 4.5 WSW 9 13 5 7 1005.9 - 0.0
02/01:00am 27.8 30.0 21.2 67 4.4 W 11 13 6 7 1006.1 - 0.0
02/12:30am 28.3 29.6 22.4 70 4.0 WNW 19 26 10 14 1006.2 - 0.0
02/12:00am 29.6 30.5 20.9 59 5.8 NNW 17 24 9 13 1006.2 1006.1 0.0
 
Date/Time
EST
Temp
°C
App
Temp
°C
Dew
Point
Rel
Hum
%
Delta-T
°C
Wind Press
QNH
hPa
Press
MSL
hPa
Rain
since 9 am
mm
Dir
 
Spd
km/h
Gust
km/h
Spd
kts
Gust
kts
01/11:30pm 29.7 31.1 22.8 66 4.7 N 20 30 11 16 1006.4 - 0.0
01/11:00pm 28.8 31.7 22.5 68 4.3 NW 11 15 6 8 1007.1 - 0.0
01/10:30pm 29.7 31.6 22.0 63 5.2 N 15 22 8 12 1006.7 - 0.0
01/10:00pm 29.5 32.4 22.4 65 4.8 N 11 15 6 8 1006.6 - 0.0
01/09:30pm 29.5 32.2 22.8 67 4.6 N 13 19 7 10 1006.1 - 0.0
01/09:00pm 29.6 31.7 22.5 65 4.8 N 15 20 8 11 1006.0 1005.9 0.0
01/08:30pm 29.6 31.9 22.1 64 5.1 N 13 19 7 10 1005.9 - 0.0
01/08:00pm 29.5 30.5 21.8 63 5.2 N 19 22 10 12 1005.8 - 0.0
01/07:30pm 29.8 31.7 21.3 60 5.7 N 13 19 7 10 1005.6 - 0.0
01/07:00pm 29.9 31.2 20.2 56 6.4 N 13 17 7 9 1005.1 - 0.0
01/06:30pm 30.6 31.0 18.1 47 8.0 N 13 15 7 8 1004.7 - 0.0
01/06:00pm 31.6 30.5 17.3 42 9.1 NNE 19 26 10 14 1004.5 1004.4 0.0
01/05:30pm 32.0 30.3 15.8 37 10.1 NNE 19 22 10 12 1004.2 - 0.0
01/05:00pm 33.0 31.2 13.2 30 11.9 NNE 15 22 8 12 1004.0 - 0.0
01/04:30pm 33.4 33.6 17.7 39 10.1 NE 13 22 7 12 1003.8 - 0.0
01/04:00pm 33.0 33.1 20.0 46 8.6 E 19 28 10 15 1004.0 - 0.0
01/03:30pm 34.5 31.3 10.1 22 14.1 N 17 20 9 11 1004.3 - 0.0
01/03:00pm 34.2 31.4 9.9 22 14.0 N 15 22 8 12 1004.6 1004.5 0.0
01/02:30pm 33.9 31.7 13.4 29 12.4 N 17 24 9 13 1004.8 - 0.0
01/02:00pm 34.0 32.5 15.2 32 11.7 N 17 24 9 13 1005.1 - 0.0
01/01:30pm 33.4 31.8 13.9 30 11.9 N 15 22 8 12 1005.5 - 0.0
01/01:00pm 33.9 31.9 12.7 27 12.7 NNW 15 24 8 13 1005.7 - 0.0
01/12:30pm 33.1 31.5 13.9 31 11.7 NNW 15 20 8 11 1006.0 - 0.0
01/12:00pm 33.1 31.6 14.1 31 11.6 NNW 15 24 8 13 1006.6 1006.5 0.0
01/11:30am 33.7 31.7 12.7 28 12.6 NW 15 24 8 13 1007.1 - 0.0
01/11:00am 32.1 30.9 16.1 38 10.0 NW 17 35 9 19 1007.5 - 0.0
01/10:30am 31.9 32.7 19.8 48 8.0 NW 15 20 8 11 1007.7 - 0.0
01/10:00am 30.8 32.0 20.6 54 6.8 NNW 15 26 8 14 1007.8 - 0.0
01/09:30am 31.0 32.4 21.0 55 6.7 NNW 15 22 8 12 1007.9 - 0.0
01/09:00am 30.4 32.7 21.3 58 6.1 NW 11 19 6 10 1007.6 1007.5 0.0
01/08:30am 29.6 32.7 22.2 64 5.0 NW 9 15 5 8 1007.3 - 0.0
01/08:00am 29.4 33.4 23.8 72 3.9 W 9 13 5 7 1007.1 - 0.0
01/07:30am 28.4 32.4 23.1 73 3.6 W 7 11 4 6 1006.9 - 0.0
01/07:00am 27.6 33.5 24.1 81 2.4 CALM 0 0 0 0 1006.7 - 0.0
01/06:30am 26.9 30.9 23.8 83 2.1 SSW 9 11 5 6 1006.5 - 0.0
01/06:00am 26.6 32.2 23.5 83 2.1 CALM 0 0 0 0 1006.0 1005.9 0.0
01/05:30am 26.1 30.6 23.9 88 1.5 N 7 9 4 5 1005.6 - 0.0
01/05:00am 25.9 30.4 23.9 89 1.4 NW 7 9 4 5 1005.5 - 0.0
01/04:30am 26.5 30.1 23.7 84 1.9 SW 11 11 6 6 1005.8 - 0.0
01/04:00am 26.8 30.8 23.1 80 2.5 SW 7 11 4 6 1006.0 - 0.0
01/03:30am 26.5 29.8 22.5 78 2.7 N 9 11 5 6 1005.7 - 0.0
01/03:00am 26.4 30.3 23.0 81 2.3 NNW 7 9 4 5 1005.8 1005.7 0.0
01/02:30am 26.9 30.4 22.8 78 2.8 N 9 13 5 7 1005.6 - 0.0
01/02:00am 27.0 30.6 23.0 79 2.7 N 9 13 5 7 1006.1 - 0.0
01/01:30am 26.9 31.2 22.6 77 2.9 N 4 9 2 5 1006.5 - 0.0
01/01:00am 26.6 31.4 22.8 79 2.6 N 2 7 1 4 1006.9 - 0.0
01/12:30am 26.9 29.9 22.6 77 2.9 NNE 11 13 6 7 1007.2 - 0.0
01/12:00am 26.6 30.4 23.5 83 2.1 NNE 9 11 5 6 1007.5 1007.4 0.0
 
Date/Time
EST
Temp
°C
App
Temp
°C
Dew
Point
Rel
Hum
%
Delta-T
°C
Wind Press
QNH
hPa
Press
MSL
hPa
Rain
since 9 am
mm
Dir
 
Spd
km/h
Gust
km/h
Spd
kts
Gust
kts
31/11:30pm 27.0 30.8 23.5 81 2.4 NE 9 11 5 6 1007.8 - 0.0
31/11:00pm 27.7 31.5 23.5 78 2.9 N 9 13 5 7 1007.9 - 0.0
31/10:30pm 27.6 31.4 23.5 78 2.8 N 9 11 5 6 1008.2 - 0.0
31/10:00pm 27.7 31.7 23.8 79 2.7 N 9 9 5 5 1008.2 - 0.0
31/09:30pm 27.7 31.7 23.8 79 2.7 NNE 9 13 5 7 1007.8 - 0.0
31/09:00pm 28.0 31.9 23.6 77 3.0 N 9 13 5 7 1007.5 1007.4 0.0
31/08:30pm 28.1 31.2 23.6 76 3.1 NNE 13 15 7 8 1007.2 - 0.0
31/08:00pm 28.3 31.1 23.6 75 3.2 NNE 15 19 8 10 1006.8 - 0.0
31/07:30pm 28.5 31.3 23.6 75 3.4 NE 15 20 8 11 1006.5 - 0.0
31/07:00pm 28.9 31.2 23.4 72 3.8 NE 17 20 9 11 1006.1 - 0.0
31/06:30pm 29.3 31.0 23.0 69 4.3 ENE 19 24 10 13 1005.5 - 0.0
31/06:00pm 29.9 31.4 23.0 66 4.7 NE 20 30 11 16 1005.4 1005.3 0.0
31/05:30pm 30.4 31.5 23.1 65 5.0 NE 22 28 12 15 1004.9 - 0.0
31/05:00pm 30.5 31.4 23.4 66 4.9 ENE 24 30 13 16 1004.7 - 0.0
31/04:30pm 30.8 31.6 23.1 63 5.3 ENE 24 32 13 17 1004.6 - 0.0
31/04:00pm 31.5 32.4 24.0 64 5.2 NE 26 32 14 17 1004.8 - 0.0
31/03:30pm 31.0 31.5 23.3 63 5.3 NE 26 32 14 17 1005.1 - 0.0
31/03:00pm 31.4 32.3 23.3 62 5.6 ENE 24 30 13 16 1005.3 1005.2 0.0
31/02:30pm 31.5 32.7 23.2 61 5.7 NE 22 28 12 15 1005.6 - 0.0
31/02:00pm 31.7 33.5 23.5 62 5.7 ENE 20 26 11 14 1005.8 - 0.0
31/01:30pm 31.6 33.5 23.7 63 5.5 ENE 20 28 11 15 1006.0 - 0.0
31/01:00pm 31.0 33.6 23.9 66 4.9 E 17 22 9 12 1006.3 - 0.0
31/12:30pm 30.9 32.3 23.5 64 5.1 ENE 22 28 12 15 1006.6 - 0.0
31/12:00pm 30.8 32.3 23.7 66 4.9 ENE 22 30 12 16 1007.0 1006.9 0.0
31/11:30am 30.9 32.9 23.0 62 5.4 NE 17 26 9 14 1007.3 - 0.0
31/11:00am 30.8 33.0 23.2 64 5.2 NE 17 20 9 11 1007.6 - 0.0
31/10:30am 30.3 32.9 22.7 64 5.2 ENE 13 19 7 10 1008.0 - 0.0
31/10:00am 30.4 33.0 23.3 66 4.9 ENE 15 19 8 10 1008.2 - 0.0
31/09:30am 29.9 33.7 24.0 70 4.1 NE 11 17 6 9 1008.3 - 0.0
31/09:00am 29.6 34.2 23.8 71 4.0 ESE 6 13 3 7 1008.2 1008.1 1.8
31/08:30am 28.7 33.3 23.8 75 3.4 S 6 7 3 4 1007.9 - 1.8
31/08:00am 27.9 31.9 23.8 78 2.8 SSW 9 11 5 6 1007.8 - 1.8
31/07:30am 27.2 32.7 23.4 80 2.6 CALM 0 0 0 0 1007.9 - 1.8
31/07:00am 26.0 31.7 23.8 88 1.5 CALM 0 0 0 0 1007.7 - 1.8
31/06:30am 24.8 30.2 23.3 91 1.0 CALM 0 0 0 0 1007.5 - 1.8
31/06:00am 24.5 29.8 23.0 91 1.0 CALM 0 0 0 0 1006.9 1006.8 1.8
31/05:30am 24.6 29.8 22.8 90 1.2 CALM 0 0 0 0 1006.6 - 1.8
31/05:00am 24.5 27.6 22.9 91 1.1 S 11 13 6 7 1006.2 - 1.8
31/04:30am 24.7 28.9 23.1 91 1.1 S 6 13 3 7 1006.1 - 1.8
31/04:00am 24.5 30.1 23.5 94 0.7 CALM 0 0 0 0 1006.2 - 1.8
31/03:30am 24.3 29.7 23.3 94 0.7 CALM 0 0 0 0 1006.2 - 1.8
31/03:00am 24.5 29.9 23.2 92 0.9 CALM 0 0 0 0 1006.2 1006.1 1.8
31/02:30am 24.6 28.2 23.0 91 1.1 SSW 9 9 5 5 1006.6 - 1.8
31/02:00am 24.7 28.5 23.5 93 0.8 SW 9 9 5 5 1006.7 - 1.8
31/01:30am 24.7 29.9 22.9 90 1.2 CALM 0 0 0 0 1006.9 - 1.8
31/01:00am 24.7 30.0 23.1 91 1.1 CALM 0 0 0 0 1007.2 - 1.8
31/12:33am 24.6 29.4 22.8 90 1.2 WNW 2 9 1 5 1007.5 - 1.6
31/12:30am 24.7 28.9 23.1 91 1.1 WNW 6 11 3 6 1007.4 - 1.6
31/12:00am 24.4 27.6 23.1 92 0.9 NNW 11 15 6 8 1007.6 1007.5 1.6
 
Date/Time
EST
Temp
°C
App
Temp
°C
Dew
Point
Rel
Hum
%
Delta-T
°C
Wind Press
QNH
hPa
Press
MSL
hPa
Rain
since 9 am
mm
Dir
 
Spd
km/h
Gust
km/h
Spd
kts
Gust
kts
30/11:57pm 24.5 28.1 23.0 91 1.0 NNW 9 15 5 8 1007.5 - 1.6
30/11:30pm 24.6 29.9 23.1 91 1.0 CALM 0 0 0 0 1007.6 - 1.6
30/11:00pm 24.7 28.9 23.1 91 1.1 SW 6 9 3 5 1007.9 - 1.6
30/10:30pm 24.5 28.1 23.0 91 1.0 WSW 9 11 5 6 1007.7 - 1.6
30/10:00pm 24.5 28.1 23.0 91 1.0 WSW 9 13 5 7 1007.6 - 1.6
30/09:30pm 24.3 27.9 23.0 92 0.9 W 9 13 5 7 1007.5 - 1.6
30/09:00pm 24.4 27.7 23.2 93 0.8 WSW 11 15 6 8 1007.3 1007.2 1.6
30/08:30pm 24.9 28.5 23.1 90 1.2 SW 9 13 5 7 1007.3 - 1.6
30/08:00pm 24.7 28.5 22.8 89 1.3 ESE 7 9 4 5 1007.3 - 1.6
30/07:30pm 24.4 28.4 22.8 91 1.1 NNE 6 7 3 4 1006.7 - 1.6
30/07:12pm 24.3 28.9 22.4 89 1.3 NNW 2 7 1 4 1006.4 - 1.4
30/07:00pm 24.0 27.1 22.2 90 1.2 NW 9 15 5 8 1006.8 - 1.2
30/06:45pm 23.9 27.1 22.4 91 1.0 S 9 13 5 7 1006.9 - 0.8
30/06:30pm 23.0 23.9 21.6 92 0.9 ESE 19 24 10 13 1006.2 - 0.4
30/06:20pm 23.3 21.9 21.2 88 1.4 SE 30 35 16 19 1005.4 - 0.0
30/06:10pm 24.2 20.5 21.9 87 1.5 S 44 57 24 31 1005.6 - 0.0
30/06:00pm 26.3 24.4 21.0 72 3.5 SSE 32 46 17 25 1005.5 1005.5 0.0
30/05:55pm 26.4 22.7 20.8 71 3.7 SE 41 54 22 29 1005.5 - 0.0
30/05:47pm 29.1 30.9 23.6 72 3.8 E 20 28 11 15 1005.1 - 0.0
30/05:30pm 29.1 30.0 23.9 73 3.6 E 26 32 14 17 1004.4 - 0.0
30/05:00pm 30.0 30.3 23.6 68 4.4 ENE 28 35 15 19 1003.9 - 0.0
30/04:30pm 30.1 30.6 23.3 67 4.7 ENE 26 32 14 17 1003.8 - 0.0
30/04:00pm 30.4 31.6 23.8 68 4.6 NE 24 32 13 17 1003.7 - 0.0
30/03:30pm 30.1 32.0 23.7 68 4.4 ENE 20 30 11 16 1003.8 - 0.0
30/03:00pm 29.6 30.5 23.3 69 4.3 ENE 24 32 13 17 1004.2 1004.1 0.0
30/02:30pm 30.3 30.2 23.6 67 4.6 ENE 30 39 16 21 1004.6 - 0.0
30/02:00pm 31.0 31.1 24.6 68 4.5 ENE 32 37 17 20 1004.5 - 0.0
30/01:49pm 30.9 31.0 24.5 68 4.5 ENE 32 39 17 21 1004.7 - 0.0
30/01:35pm 31.7 31.8 24.6 66 5.0 ENE 32 41 17 22 1004.8 - 0.0
30/01:30pm 31.3 31.3 24.4 66 4.8 ENE 32 41 17 22 1004.9 - 0.0
30/01:00pm 31.9 31.2 23.5 61 5.8 ENE 33 41 18 22 1005.2 - 0.0
30/12:30pm 31.4 32.2 24.5 67 4.8 ENE 28 35 15 19 1005.7 - 0.0
30/12:00pm 31.5 32.3 23.1 61 5.8 ENE 24 33 13 18 1005.7 1005.6 0.0
30/11:30am 31.5 32.8 22.7 59 6.0 E 20 28 11 15 1006.2 - 0.0
30/11:00am 31.4 33.0 23.3 62 5.6 E 20 30 11 16 1006.6 - 0.0
30/10:30am 30.9 32.5 22.9 62 5.5 E 19 26 10 14 1006.8 - 0.0

Other Formats:

Comma delimited format used in spreadsheet applications
http://www.bom.gov.au/fwo/IDQ60801/IDQ60801.94294.axf

JavaScript Object Notation format (JSON) in row-major order
http://www.bom.gov.au/fwo/IDQ60801/IDQ60801.94294.json